North Liberty, Ohio
Current Conditions -  °F | °C
As of 2:36 AM on Wednesday 26 Nov 2014 (Local Time) from K4I3 Reporting Station
Clear Clear  
Wind Chill: 27°   Ceiling: Unl
Heat Index: 27°   Visibility: 10mi
Dew Point: 25°   Wind: 0mph
Humidity: 93%   Direction: NA
Pressure: 30.15"   Gusts: NA
Location:  40.557°N, 82.3946°W
Report Text: K4I3 260736Z AUTO 00000KT 10SM CLR M03/M04 A3015 RMK AO2
Loading
Personal Weather Stations






























Interactive Weather Map New forecast layout! Learn more

10-Day Weather Forecast

Advertisements
Track Severe Weather on mobile